createdAt,value
2018-12-04T00:00:12.713Z,0
2018-12-04T00:01:13.689Z,0
2018-12-04T00:02:12.914Z,0
2018-12-04T00:03:13.667Z,0
2018-12-04T00:04:12.658Z,0
2018-12-04T00:05:12.663Z,0
2018-12-04T00:06:12.906Z,0
2018-12-04T00:07:12.411Z,0
2018-12-04T00:08:12.650Z,0
2018-12-04T00:09:12.455Z,0
2018-12-04T00:10:12.639Z,0
2018-12-04T00:11:12.640Z,0
2018-12-04T00:12:12.875Z,0
2018-12-04T00:13:12.647Z,0
2018-12-04T00:14:12.621Z,0
2018-12-04T00:15:12.873Z,0
2018-12-04T00:16:12.625Z,0
2018-12-04T00:17:12.361Z,0
2018-12-04T00:18:12.362Z,0
2018-12-04T00:19:12.590Z,0
2018-12-04T00:20:12.836Z,0
2018-12-04T00:21:12.593Z,0
2018-12-04T00:22:12.821Z,0
2018-12-04T00:23:12.590Z,0
2018-12-04T00:24:12.329Z,0
2018-12-04T00:25:12.336Z,0
2018-12-04T00:26:12.611Z,0
2018-12-04T00:27:12.563Z,0
2018-12-04T00:28:12.571Z,0
2018-12-04T00:29:12.341Z,0
2018-12-04T00:30:12.565Z,0
2018-12-04T00:31:12.310Z,0
2018-12-04T00:32:12.802Z,0
2018-12-04T00:33:12.286Z,0
2018-12-04T00:34:12.792Z,0
2018-12-04T00:35:12.522Z,0
2018-12-04T00:36:12.771Z,0
2018-12-04T00:37:12.281Z,0
2018-12-04T00:38:12.530Z,0
2018-12-04T00:39:12.283Z,0
2018-12-04T00:40:12.280Z,0
2018-12-04T00:41:12.273Z,0
2018-12-04T00:42:12.510Z,0
2018-12-04T00:43:12.506Z,0
2018-12-04T00:44:12.494Z,0
2018-12-04T00:45:12.012Z,0
2018-12-04T00:46:12.243Z,0
2018-12-04T00:47:12.482Z,0
2018-12-04T00:48:12.468Z,0
2018-12-04T00:49:12.728Z,0
2018-12-04T00:50:11.970Z,0
2018-12-04T00:51:12.462Z,0
2018-12-04T00:52:12.257Z,0
2018-12-04T00:53:12.461Z,0
2018-12-04T00:54:12.709Z,0
2018-12-04T00:55:12.454Z,0
2018-12-04T00:56:11.947Z,0
2018-12-04T00:57:12.459Z,0
2018-12-04T00:58:12.513Z,0
2018-12-04T00:59:12.712Z,0
2018-12-04T01:00:12.231Z,0
2018-12-04T01:01:12.662Z,0
2018-12-04T01:02:12.671Z,0
2018-12-04T01:03:12.407Z,0
2018-12-04T01:04:12.395Z,0
2018-12-04T01:05:12.161Z,0
2018-12-04T01:06:12.518Z,0
2018-12-04T01:07:12.414Z,0
2018-12-04T01:08:12.422Z,0
2018-12-04T01:09:12.138Z,0
2018-12-04T01:10:12.633Z,0
2018-12-04T01:11:12.135Z,0
2018-12-04T01:12:11.918Z,0
2018-12-04T01:13:11.906Z,0
2018-12-04T01:14:12.366Z,0
2018-12-04T01:15:12.417Z,0
2018-12-04T01:16:12.364Z,0
2018-12-04T01:17:12.593Z,0
2018-12-04T01:18:12.355Z,0
2018-12-04T01:19:12.613Z,0
2018-12-04T01:20:11.867Z,0
2018-12-04T01:21:12.611Z,0
2018-12-04T01:22:12.335Z,0
2018-12-04T01:23:12.353Z,0
2018-12-04T01:24:12.322Z,0
2018-12-04T01:25:12.572Z,0
2018-12-04T01:26:12.064Z,0
2018-12-04T01:27:12.544Z,0
2018-12-04T01:28:12.305Z,0
2018-12-04T01:29:12.583Z,0
2018-12-04T01:30:12.050Z,0
2018-12-04T01:31:12.049Z,0
2018-12-04T01:32:12.302Z,0
2018-12-04T01:33:12.055Z,0
2018-12-04T01:34:12.283Z,0
2018-12-04T01:35:12.050Z,0
2018-12-04T01:36:12.268Z,0
2018-12-04T01:37:12.020Z,0
2018-12-04T01:38:12.512Z,0
2018-12-04T01:39:11.996Z,0
2018-12-04T01:40:11.563Z,0
2018-12-04T01:41:12.499Z,0
2018-12-04T01:42:11.995Z,0
2018-12-04T01:43:11.752Z,0
2018-12-04T01:44:11.980Z,0
2018-12-04T01:45:12.500Z,0
2018-12-04T01:46:12.214Z,0
2018-12-04T01:47:12.255Z,0
2018-12-04T01:48:12.224Z,0
2018-12-04T01:49:11.711Z,0
2018-12-04T01:50:12.198Z,0
2018-12-04T01:51:11.948Z,0
2018-12-04T01:52:12.436Z,0
2018-12-04T01:53:11.957Z,0
2018-12-04T01:54:12.380Z,0
2018-12-04T01:55:12.213Z,0
2018-12-04T01:56:12.415Z,0
2018-12-04T01:57:12.428Z,0
2018-12-04T01:58:12.181Z,0
2018-12-04T01:59:12.420Z,0
2018-12-04T02:00:11.423Z,0
2018-12-04T02:01:12.234Z,0
2018-12-04T02:02:11.900Z,0
2018-12-04T02:03:12.158Z,0
2018-12-04T02:04:12.137Z,0
2018-12-04T02:05:11.665Z,0
2018-12-04T02:06:11.875Z,0
2018-12-04T02:07:12.135Z,0
2018-12-04T02:08:12.127Z,0
2018-12-04T02:09:11.608Z,0
2018-12-04T02:10:12.120Z,0
2018-12-04T02:11:11.863Z,0
2018-12-04T02:12:11.847Z,0
2018-12-04T02:13:12.103Z,0
2018-12-04T02:14:12.097Z,0
2018-12-04T02:15:12.091Z,0
2018-12-04T02:16:12.341Z,0
2018-12-04T02:17:11.849Z,0
2018-12-04T02:18:11.572Z,0
2018-12-04T02:19:11.566Z,0
2018-12-04T02:20:12.328Z,0
2018-12-04T02:21:12.522Z,0
2018-12-04T02:22:12.075Z,0
2018-12-04T02:23:12.735Z,0
2018-12-04T02:24:12.034Z,0
2018-12-04T02:25:12.035Z,0
2018-12-04T02:26:11.776Z,0
2018-12-04T02:27:12.061Z,0
2018-12-04T02:28:12.011Z,0
2018-12-04T02:29:11.767Z,0
2018-12-04T02:30:12.026Z,0
2018-12-04T02:31:11.743Z,0
2018-12-04T02:32:12.048Z,0
2018-12-04T02:33:12.014Z,0
2018-12-04T02:34:11.987Z,0
2018-12-04T02:35:11.735Z,0
2018-12-04T02:36:11.717Z,0
2018-12-04T02:37:11.730Z,0
2018-12-04T02:38:12.217Z,0
2018-12-04T02:39:12.016Z,0
2018-12-04T02:40:12.202Z,0
2018-12-04T02:41:12.197Z,0
2018-12-04T02:42:11.976Z,0
2018-12-04T02:43:11.961Z,0
2018-12-04T02:44:11.954Z,0
2018-12-04T02:45:11.964Z,0
2018-12-04T02:46:11.684Z,0
2018-12-04T02:47:11.918Z,0
2018-12-04T02:48:11.945Z,0
2018-12-04T02:49:11.947Z,0
2018-12-04T02:50:11.717Z,0
2018-12-04T02:51:12.153Z,0
2018-12-04T02:52:11.971Z,0
2018-12-04T02:53:11.916Z,0
2018-12-04T02:54:11.663Z,0
2018-12-04T02:55:11.908Z,0
2018-12-04T02:56:11.872Z,0
2018-12-04T02:57:11.875Z,0
2018-12-04T02:58:11.632Z,0
2018-12-04T02:59:12.127Z,0
2018-12-04T03:00:11.862Z,0
2018-12-04T03:01:12.084Z,0
2018-12-04T03:02:12.133Z,0
2018-12-04T03:03:11.894Z,0
2018-12-04T03:04:11.847Z,0
2018-12-04T03:05:11.586Z,0
2018-12-04T03:06:11.596Z,0
2018-12-04T03:07:11.634Z,0
2018-12-04T03:08:12.082Z,0
2018-12-04T03:09:11.572Z,0
2018-12-04T03:10:11.568Z,0
2018-12-04T03:11:12.104Z,0
2018-12-04T03:12:11.812Z,0
2018-12-04T03:13:11.601Z,0
2018-12-04T03:14:11.813Z,0
2018-12-04T03:15:11.785Z,0
2018-12-04T03:16:11.541Z,0
2018-12-04T03:17:11.546Z,0
2018-12-04T03:18:11.796Z,0
2018-12-04T03:19:12.074Z,0
2018-12-04T03:20:12.085Z,0
2018-12-04T03:21:11.773Z,0
2018-12-04T03:22:11.812Z,0
2018-12-04T03:23:11.751Z,0
2018-12-04T03:24:11.257Z,0
2018-12-04T03:25:11.768Z,0
2018-12-04T03:26:11.263Z,0
2018-12-04T03:27:11.235Z,0
2018-12-04T03:28:11.470Z,0
2018-12-04T03:29:11.743Z,0
2018-12-04T03:30:11.744Z,0
2018-12-04T03:31:11.973Z,0
2018-12-04T03:32:11.989Z,0
2018-12-04T03:33:11.840Z,0
2018-12-04T03:34:11.692Z,0
2018-12-04T03:35:10.987Z,0
2018-12-04T03:36:11.714Z,0
2018-12-04T03:37:11.460Z,0
2018-12-04T03:38:11.676Z,0
2018-12-04T03:39:11.194Z,0
2018-12-04T03:40:11.945Z,0
2018-12-04T03:41:11.932Z,0
2018-12-04T03:42:11.661Z,0
2018-12-04T03:43:11.688Z,0
2018-12-04T03:44:11.666Z,0
2018-12-04T03:45:11.887Z,0
2018-12-04T03:46:11.895Z,0
2018-12-04T03:47:11.882Z,0
2018-12-04T03:48:11.405Z,0
2018-12-04T03:49:11.626Z,0
2018-12-04T03:50:11.397Z,0
2018-12-04T03:51:11.632Z,0
2018-12-04T03:52:11.667Z,0
2018-12-04T03:53:11.622Z,0
2018-12-04T03:54:11.631Z,0
2018-12-04T03:55:11.617Z,0
2018-12-04T03:56:11.369Z,0
2018-12-04T03:57:11.634Z,0
2018-12-04T03:58:11.588Z,0
2018-12-04T03:59:11.857Z,0
2018-12-04T04:00:11.591Z,0
2018-12-04T04:01:11.356Z,0
2018-12-04T04:02:11.579Z,0
2018-12-04T04:03:11.081Z,0
2018-12-04T04:04:11.822Z,0
2018-12-04T04:05:11.857Z,0
2018-12-04T04:06:11.078Z,0
2018-12-04T04:07:11.576Z,0
2018-12-04T04:08:11.567Z,0
2018-12-04T04:09:11.554Z,0
2018-12-04T04:10:11.300Z,0
2018-12-04T04:11:11.571Z,0
2018-12-04T04:12:11.777Z,0
2018-12-04T04:13:11.259Z,0
2018-12-04T04:14:11.765Z,0
2018-12-04T04:15:11.523Z,0
2018-12-04T04:16:11.780Z,0
2018-12-04T04:17:11.512Z,0
2018-12-04T04:18:11.499Z,0
2018-12-04T04:19:11.767Z,0
2018-12-04T04:20:10.760Z,0
2018-12-04T04:21:11.747Z,0
2018-12-04T04:22:11.268Z,0
2018-12-04T04:23:11.148Z,0
2018-12-04T04:24:11.220Z,0
2018-12-04T04:25:11.487Z,0
2018-12-04T04:26:11.701Z,0
2018-12-04T04:27:11.456Z,0
2018-12-04T04:28:11.465Z,0
2018-12-04T04:29:11.207Z,0
2018-12-04T04:30:11.720Z,0
2018-12-04T04:31:10.945Z,0
2018-12-04T04:32:11.205Z,0
2018-12-04T04:33:11.744Z,0
2018-12-04T04:34:11.214Z,0
2018-12-04T04:35:11.211Z,0
2018-12-04T04:36:11.177Z,0
2018-12-04T04:37:11.682Z,0
2018-12-04T04:38:11.420Z,0
2018-12-04T04:39:11.463Z,0
2018-12-04T04:40:11.186Z,0
2018-12-04T04:41:11.157Z,0
2018-12-04T04:42:11.271Z,0
2018-12-04T04:43:11.170Z,0
2018-12-04T04:44:11.419Z,0
2018-12-04T04:45:11.386Z,0
2018-12-04T04:46:11.162Z,0
2018-12-04T04:47:11.399Z,0
2018-12-04T04:48:11.627Z,0
2018-12-04T04:49:11.408Z,0
2018-12-04T04:50:11.382Z,0
2018-12-04T04:51:11.195Z,0
2018-12-04T04:52:11.398Z,0
2018-12-04T04:53:11.378Z,0
2018-12-04T04:54:11.345Z,0
2018-12-04T04:55:11.342Z,0
2018-12-04T04:56:11.337Z,0
2018-12-04T04:57:11.096Z,0
2018-12-04T04:58:11.581Z,0
2018-12-04T04:59:11.336Z,0
2018-12-04T05:00:11.339Z,0
2018-12-04T05:01:11.546Z,0
2018-12-04T05:02:11.567Z,0
2018-12-04T05:03:11.065Z,0
2018-12-04T05:04:11.849Z,0
2018-12-04T05:05:11.298Z,0
2018-12-04T05:06:11.525Z,0
2018-12-04T05:07:11.279Z,0
2018-12-04T05:08:11.278Z,0
2018-12-04T05:09:11.532Z,0
2018-12-04T05:10:11.546Z,0
2018-12-04T05:11:11.256Z,0
2018-12-04T05:12:11.256Z,0
2018-12-04T05:13:11.071Z,0
2018-12-04T05:14:11.332Z,0
2018-12-04T05:15:11.295Z,0
2018-12-04T05:16:11.002Z,0
2018-12-04T05:17:11.245Z,0
2018-12-04T05:18:11.003Z,0
2018-12-04T05:19:11.478Z,0
2018-12-04T05:20:11.228Z,0
2018-12-04T05:21:11.437Z,0
2018-12-04T05:22:10.986Z,0
2018-12-04T05:23:11.209Z,0
2018-12-04T05:24:10.953Z,0
2018-12-04T05:25:10.958Z,0
2018-12-04T05:26:10.952Z,0
2018-12-04T05:27:10.692Z,0
2018-12-04T05:28:11.204Z,0
2018-12-04T05:29:11.229Z,0
2018-12-04T05:30:11.171Z,0
2018-12-04T05:31:11.172Z,0
2018-12-04T05:32:10.940Z,0
2018-12-04T05:33:11.187Z,0
2018-12-04T05:34:10.910Z,0
2018-12-04T05:35:15.159Z,0
2018-12-04T05:36:11.186Z,0
2018-12-04T05:37:11.155Z,0
2018-12-04T05:38:11.141Z,0
2018-12-04T05:39:10.874Z,0
2018-12-04T05:40:10.886Z,0
2018-12-04T05:41:11.130Z,0
2018-12-04T05:42:10.635Z,0
2018-12-04T05:43:10.898Z,0
2018-12-04T05:44:11.130Z,0
2018-12-04T05:45:11.379Z,0
2018-12-04T05:46:10.927Z,0
2018-12-04T05:47:10.842Z,0
2018-12-04T05:48:11.338Z,0
2018-12-04T05:49:11.091Z,0
2018-12-04T05:50:11.104Z,0
2018-12-04T05:51:10.370Z,0
2018-12-04T05:52:11.324Z,0
2018-12-04T05:53:10.826Z,0
2018-12-04T05:54:11.069Z,0
2018-12-04T05:55:10.818Z,0
2018-12-04T05:56:11.061Z,0
2018-12-04T05:57:11.079Z,0
2018-12-04T05:58:10.808Z,0
2018-12-04T05:59:10.538Z,0
2018-12-04T06:00:11.299Z,0
2018-12-04T06:01:10.864Z,0
2018-12-04T06:02:11.038Z,0
2018-12-04T06:03:10.782Z,0
2018-12-04T06:04:10.784Z,0
2018-12-04T06:05:11.022Z,0
2018-12-04T06:06:11.101Z,0
2018-12-04T06:07:10.983Z,0
2018-12-04T06:08:10.749Z,0
2018-12-04T06:09:11.308Z,0
2018-12-04T06:10:11.227Z,0
2018-12-04T06:11:11.213Z,0
2018-12-04T06:12:10.967Z,0
2018-12-04T06:13:10.477Z,0
2018-12-04T06:14:11.018Z,0
2018-12-04T06:15:10.962Z,0
2018-12-04T06:16:10.489Z,0
2018-12-04T06:17:10.938Z,0
2018-12-04T06:18:11.655Z,0
2018-12-04T06:19:10.688Z,0
2018-12-04T06:20:10.429Z,0
2018-12-04T06:21:10.940Z,0
2018-12-04T06:22:10.944Z,0
2018-12-04T06:23:10.908Z,0
2018-12-04T06:24:11.195Z,0
2018-12-04T06:25:11.197Z,0
2018-12-04T06:26:10.912Z,0
2018-12-04T06:27:10.919Z,0
2018-12-04T06:28:10.892Z,0
2018-12-04T06:29:10.650Z,0
2018-12-04T06:30:11.125Z,0
2018-12-04T06:31:11.679Z,0
2018-12-04T06:32:11.113Z,0
2018-12-04T06:33:11.113Z,0
2018-12-04T06:34:10.614Z,0
2018-12-04T06:35:10.849Z,0
2018-12-04T06:36:10.930Z,0
2018-12-04T06:37:10.362Z,0
2018-12-04T06:38:10.845Z,0
2018-12-04T06:39:10.844Z,0
2018-12-04T06:40:10.842Z,0
2018-12-04T06:41:10.098Z,0
2018-12-04T06:42:10.847Z,0
2018-12-04T06:43:10.329Z,0
2018-12-04T06:44:10.812Z,0
2018-12-04T06:45:10.582Z,0
2018-12-04T06:46:11.049Z,0
2018-12-04T06:47:10.836Z,0
2018-12-04T06:48:10.814Z,0
2018-12-04T06:49:10.543Z,0
2018-12-04T06:50:10.536Z,0
2018-12-04T06:51:11.939Z,0
2018-12-04T06:52:10.760Z,0
2018-12-04T06:53:10.299Z,0
2018-12-04T06:54:11.002Z,0
2018-12-04T06:55:11.001Z,0
2018-12-04T06:56:10.759Z,0
2018-12-04T06:57:10.995Z,0
2018-12-04T06:58:10.791Z,0
2018-12-04T06:59:10.509Z,0
2018-12-04T07:00:10.756Z,0
2018-12-04T07:01:10.988Z,0
2018-12-04T07:02:10.957Z,0
2018-12-04T07:03:10.964Z,0
2018-12-04T07:04:10.989Z,0
2018-12-04T07:05:10.962Z,0
2018-12-04T07:06:10.965Z,5
2018-12-04T07:07:10.743Z,5
2018-12-04T07:08:10.708Z,5
2018-12-04T07:09:10.448Z,5
2018-12-04T07:10:10.925Z,5
2018-12-04T07:11:11.525Z,5
2018-12-04T07:12:11.929Z,5
2018-12-04T07:13:10.428Z,5
2018-12-04T07:14:10.943Z,5
2018-12-04T07:15:10.670Z,5
2018-12-04T07:16:11.449Z,5
2018-12-04T07:17:10.457Z,5
2018-12-04T07:18:10.396Z,5
2018-12-04T07:19:10.659Z,10
2018-12-04T07:20:10.648Z,10
2018-12-04T07:21:10.373Z,10
2018-12-04T07:22:10.873Z,10
2018-12-04T07:23:10.660Z,15
2018-12-04T07:24:10.609Z,15
2018-12-04T07:25:10.593Z,20
2018-12-04T07:26:10.413Z,20
2018-12-04T07:27:10.875Z,20
2018-12-04T07:28:10.587Z,20
2018-12-04T07:29:10.600Z,15
2018-12-04T07:30:10.619Z,15
2018-12-04T07:31:10.835Z,15
2018-12-04T07:32:10.599Z,15
2018-12-04T07:33:10.329Z,15
2018-12-04T07:34:10.323Z,15
2018-12-04T07:35:10.080Z,15
2018-12-04T07:36:10.810Z,15
2018-12-04T07:37:10.317Z,15
2018-12-04T07:38:10.545Z,15
2018-12-04T07:39:10.562Z,15
2018-12-04T07:40:10.774Z,15
2018-12-04T07:41:10.554Z,15
2018-12-04T07:42:10.533Z,15
2018-12-04T07:43:11.859Z,10
2018-12-04T07:44:10.033Z,10
2018-12-04T07:45:10.518Z,10
2018-12-04T07:46:10.292Z,10
2018-12-04T07:47:10.246Z,10
2018-12-04T07:48:10.527Z,10
2018-12-04T07:49:10.499Z,10
2018-12-04T07:50:10.727Z,10
2018-12-04T07:51:10.744Z,10
2018-12-04T07:52:10.472Z,10
2018-12-04T07:53:10.472Z,10
2018-12-04T07:54:10.461Z,10
2018-12-04T07:55:10.201Z,10
2018-12-04T07:56:11.899Z,15
2018-12-04T07:57:10.465Z,15
2018-12-04T07:58:10.204Z,15
2018-12-04T07:59:10.179Z,15
2018-12-04T08:00:09.949Z,15
2018-12-04T08:01:10.191Z,20
2018-12-04T08:02:10.428Z,20
2018-12-04T08:03:10.439Z,20
2018-12-04T08:04:10.411Z,25
2018-12-04T08:05:10.185Z,25
2018-12-04T08:06:10.410Z,30
2018-12-04T08:07:10.148Z,35
2018-12-04T08:08:10.631Z,35
2018-12-04T08:09:09.889Z,40
2018-12-04T08:10:10.131Z,40
2018-12-04T08:11:10.127Z,40
2018-12-04T08:12:10.144Z,40
2018-12-04T08:13:10.364Z,45
2018-12-04T08:14:10.108Z,45
2018-12-04T08:15:10.643Z,45
2018-12-04T08:16:10.340Z,45
2018-12-04T08:17:10.341Z,45
2018-12-04T08:18:10.136Z,45
2018-12-04T08:19:10.349Z,50
2018-12-04T08:20:09.830Z,50
2018-12-04T08:21:10.079Z,55
2018-12-04T08:22:10.606Z,55
2018-12-04T08:23:10.354Z,50
2018-12-04T08:24:10.321Z,50
2018-12-04T08:25:10.313Z,55
2018-12-04T08:26:10.109Z,55
2018-12-04T08:27:10.302Z,60
2018-12-04T08:28:10.308Z,65
2018-12-04T08:29:10.051Z,70
2018-12-04T08:30:10.565Z,70
2018-12-04T08:31:10.538Z,70
2018-12-04T08:32:10.041Z,70
2018-12-04T08:33:10.061Z,70
2018-12-04T08:34:10.274Z,70
2018-12-04T08:35:10.273Z,75
2018-12-04T08:36:10.270Z,75
2018-12-04T08:37:11.232Z,75
2018-12-04T08:38:10.010Z,75
2018-12-04T08:39:15.554Z,75
2018-12-04T08:40:10.013Z,80
2018-12-04T08:41:10.244Z,80
2018-12-04T08:42:09.720Z,85
2018-12-04T08:43:10.227Z,90
2018-12-04T08:44:09.975Z,90
2018-12-04T08:45:10.455Z,90
2018-12-04T08:46:10.208Z,85
2018-12-04T08:47:09.967Z,90
2018-12-04T08:48:09.966Z,90
2018-12-04T08:49:09.961Z,90
2018-12-04T08:50:09.781Z,90
2018-12-04T08:51:09.965Z,90
2018-12-04T08:52:10.191Z,90
2018-12-04T08:53:10.264Z,90
2018-12-04T08:54:10.205Z,90
2018-12-04T08:55:09.674Z,95
2018-12-04T08:56:09.439Z,95
2018-12-04T08:57:09.928Z,100
2018-12-04T08:58:09.890Z,100
2018-12-04T08:59:10.157Z,105
2018-12-04T09:00:09.651Z,110
2018-12-04T09:01:10.338Z,110
2018-12-04T09:02:10.135Z,110
2018-12-04T09:03:09.842Z,115
2018-12-04T09:04:09.926Z,110
2018-12-04T09:05:09.751Z,105
2018-12-04T09:06:09.923Z,105
2018-12-04T09:07:11.059Z,105
2018-12-04T09:08:13.959Z,105
2018-12-04T09:09:10.355Z,110
2018-12-04T09:10:09.859Z,110
2018-12-04T09:11:09.615Z,110
2018-12-04T09:12:10.096Z,110
2018-12-04T09:13:09.867Z,105
2018-12-04T09:14:09.620Z,100
2018-12-04T09:15:10.336Z,95
2018-12-04T09:16:09.842Z,95
2018-12-04T09:17:09.829Z,90
2018-12-04T09:18:09.721Z,85
2018-12-04T09:19:10.466Z,80
2018-12-04T09:20:10.418Z,75
2018-12-04T09:21:10.700Z,75
2018-12-04T09:22:10.622Z,75
2018-12-04T09:23:10.559Z,80
2018-12-04T09:24:10.273Z,80
2018-12-04T09:25:10.051Z,75
2018-12-04T09:26:10.441Z,70
2018-12-04T09:27:15.167Z,65
2018-12-04T09:28:10.477Z,65
2018-12-04T09:29:10.462Z,65
2018-12-04T09:30:09.733Z,65
2018-12-04T09:31:09.773Z,70
2018-12-04T09:32:10.017Z,70
2018-12-04T09:33:10.013Z,75
2018-12-04T09:34:09.750Z,70
2018-12-04T09:35:09.760Z,70
2018-12-04T09:36:09.489Z,75
2018-12-04T09:37:09.750Z,75
2018-12-04T09:38:09.756Z,80
2018-12-04T09:39:09.731Z,80
2018-12-04T09:40:09.477Z,80
2018-12-04T09:41:10.020Z,80
2018-12-04T09:42:09.981Z,85
2018-12-04T09:43:12.987Z,90
2018-12-04T09:44:09.963Z,95
2018-12-04T09:45:09.966Z,100
2018-12-04T09:46:09.714Z,100
2018-12-04T09:47:09.707Z,105
2018-12-04T09:48:09.478Z,105
2018-12-04T09:49:09.945Z,105
2018-12-04T09:50:10.020Z,110
2018-12-04T09:51:10.216Z,120
2018-12-04T09:52:09.979Z,130
2018-12-04T09:53:09.703Z,145
2018-12-04T09:54:09.951Z,195
2018-12-04T09:55:09.175Z,145
2018-12-04T09:56:09.407Z,145
2018-12-04T09:57:09.909Z,180
2018-12-04T09:58:09.665Z,180
2018-12-04T09:59:09.785Z,185
2018-12-04T10:00:10.159Z,140
2018-12-04T10:01:09.906Z,155
2018-12-04T10:02:09.660Z,135
2018-12-04T10:03:10.154Z,125
2018-12-04T10:04:09.885Z,120
2018-12-04T10:05:09.682Z,120
2018-12-04T10:06:09.635Z,145
2018-12-04T10:07:09.597Z,130
2018-12-04T10:08:09.370Z,130
2018-12-04T10:09:10.107Z,120
2018-12-04T10:10:10.386Z,105
2018-12-04T10:11:09.343Z,90
2018-12-04T10:12:09.091Z,85
2018-12-04T10:13:09.589Z,80
2018-12-04T10:14:09.826Z,80
2018-12-04T10:15:09.606Z,80
2018-12-04T10:16:09.588Z,80
2018-12-04T10:17:09.832Z,70
2018-12-04T10:18:10.074Z,75
2018-12-04T10:19:09.839Z,70
2018-12-04T10:20:09.833Z,70
2018-12-04T10:21:09.591Z,65
2018-12-04T10:22:09.666Z,70
2018-12-04T10:23:09.556Z,70
2018-12-04T10:24:10.068Z,70
2018-12-04T10:25:09.315Z,70
2018-12-04T10:26:10.097Z,70
2018-12-04T10:27:09.058Z,65
2018-12-04T10:28:09.283Z,65
2018-12-04T10:29:09.527Z,65
2018-12-04T10:30:09.773Z,70
2018-12-04T10:31:09.779Z,70
2018-12-04T10:32:10.014Z,70
2018-12-04T10:33:09.541Z,70
2018-12-04T10:34:09.767Z,75
2018-12-04T10:35:09.764Z,80
2018-12-04T10:36:11.393Z,90
2018-12-04T10:37:09.781Z,85
2018-12-04T10:38:09.564Z,85
2018-12-04T10:39:09.768Z,90
2018-12-04T10:40:09.499Z,95
2018-12-04T10:41:09.490Z,100
2018-12-04T10:42:09.495Z,95
2018-12-04T10:43:09.237Z,85
2018-12-04T10:44:09.973Z,75
2018-12-04T10:45:09.220Z,70
2018-12-04T10:46:09.708Z,65
2018-12-04T10:47:09.708Z,60
2018-12-04T10:48:09.711Z,55
2018-12-04T10:49:09.969Z,50
2018-12-04T10:50:09.471Z,45
2018-12-04T10:51:09.470Z,45
2018-12-04T10:52:09.697Z,40
2018-12-04T10:53:09.682Z,40
2018-12-04T10:54:09.698Z,35
2018-12-04T10:55:09.940Z,35
2018-12-04T10:56:09.915Z,30
2018-12-04T10:57:14.610Z,30
2018-12-04T10:58:09.453Z,30
2018-12-04T10:59:09.433Z,30
2018-12-04T11:00:10.783Z,30
2018-12-04T11:01:09.649Z,25
2018-12-04T11:02:09.677Z,20
2018-12-04T11:03:09.406Z,20
2018-12-04T11:04:09.884Z,25
2018-12-04T11:05:09.160Z,25
2018-12-04T11:06:09.388Z,30
2018-12-04T11:07:09.872Z,30
2018-12-04T11:08:09.179Z,30
2018-12-04T11:09:09.110Z,25
2018-12-04T11:10:09.123Z,30
2018-12-04T11:11:09.147Z,30
2018-12-04T11:12:14.779Z,30
2018-12-04T11:13:09.836Z,25
2018-12-04T11:14:09.350Z,25
2018-12-04T11:15:09.362Z,25
2018-12-04T11:16:09.611Z,20
2018-12-04T11:17:09.349Z,25
2018-12-04T11:18:09.591Z,25
2018-12-04T11:19:09.825Z,25
2018-12-04T11:20:09.598Z,25
2018-12-04T11:21:09.559Z,25
2018-12-04T11:22:09.329Z,25
2018-12-04T11:23:09.339Z,25
2018-12-04T11:24:08.800Z,20
2018-12-04T11:25:10.304Z,20
2018-12-04T11:26:09.556Z,20
2018-12-04T11:27:09.815Z,20
2018-12-04T11:28:09.531Z,20
2018-12-04T11:29:09.520Z,15
2018-12-04T11:30:09.518Z,15
2018-12-04T11:31:09.252Z,15
2018-12-04T11:32:09.256Z,20
2018-12-04T11:33:09.255Z,30
2018-12-04T11:34:09.739Z,35
2018-12-04T11:35:08.994Z,45
2018-12-04T11:36:09.480Z,50
2018-12-04T11:37:09.581Z,45
2018-12-04T11:38:09.001Z,40
2018-12-04T11:39:09.508Z,35
2018-12-04T11:40:09.712Z,35
2018-12-04T11:41:08.955Z,35
2018-12-04T11:42:09.203Z,35
2018-12-04T11:43:09.208Z,45
2018-12-04T11:44:09.198Z,55
2018-12-04T11:45:08.974Z,60
2018-12-04T11:46:09.208Z,65
2018-12-04T11:47:09.186Z,75
2018-12-04T11:48:09.198Z,75
2018-12-04T11:49:09.422Z,80
2018-12-04T11:50:09.532Z,85
2018-12-04T11:51:09.162Z,80
2018-12-04T11:52:09.179Z,75
2018-12-04T11:53:09.190Z,65
2018-12-04T11:54:09.408Z,55
2018-12-04T11:55:09.438Z,50
2018-12-04T11:56:09.128Z,50
2018-12-04T11:57:09.627Z,55
2018-12-04T11:58:09.419Z,60
2018-12-04T11:59:09.615Z,60
2018-12-04T12:00:09.631Z,60
2018-12-04T12:01:09.391Z,55
2018-12-04T12:02:13.253Z,55
2018-12-04T12:03:09.376Z,55
2018-12-04T12:04:09.150Z,60
2018-12-04T12:05:09.368Z,65
2018-12-04T12:06:08.887Z,65
2018-12-04T12:07:09.322Z,60
2018-12-04T12:08:09.352Z,55
2018-12-04T12:09:09.098Z,50
2018-12-04T12:10:09.972Z,50
2018-12-04T12:11:09.056Z,50
2018-12-04T12:12:09.566Z,45
2018-12-04T12:13:09.591Z,45
2018-12-04T12:14:08.813Z,45
2018-12-04T12:15:08.801Z,45
2018-12-04T12:16:09.291Z,40
2018-12-04T12:17:09.309Z,35
2018-12-04T12:18:09.264Z,30
2018-12-04T12:19:09.548Z,30
2018-12-04T12:20:09.264Z,30
2018-12-04T12:21:08.771Z,30
2018-12-04T12:22:09.535Z,35
2018-12-04T12:23:09.036Z,35
2018-12-04T12:24:09.267Z,45
2018-12-04T12:25:09.269Z,50
2018-12-04T12:26:09.264Z,45
2018-12-04T12:27:08.738Z,40
2018-12-04T12:28:09.525Z,35
2018-12-04T12:29:09.236Z,35
2018-12-04T12:30:09.222Z,35
2018-12-04T12:31:09.456Z,30
2018-12-04T12:32:09.471Z,30
2018-12-04T12:33:09.444Z,30
2018-12-04T12:34:09.515Z,25
2018-12-04T12:35:09.469Z,25
2018-12-04T12:36:09.448Z,25
2018-12-04T12:37:09.429Z,25
2018-12-04T12:38:09.182Z,25
2018-12-04T12:39:09.452Z,25
2018-12-04T12:40:09.486Z,25
2018-12-04T12:41:08.657Z,20
2018-12-04T12:42:09.412Z,20
2018-12-04T12:43:09.154Z,20
2018-12-04T12:44:09.415Z,20
2018-12-04T12:45:09.154Z,20
2018-12-04T12:46:09.369Z,20
2018-12-04T12:47:08.886Z,20
2018-12-04T12:48:09.395Z,20
2018-12-04T12:49:09.127Z,25
2018-12-04T12:50:09.381Z,25
2018-12-04T12:51:09.106Z,25
2018-12-04T12:52:08.858Z,30
2018-12-04T12:53:08.608Z,35
2018-12-04T12:54:08.848Z,35
2018-12-04T12:55:09.078Z,35
2018-12-04T12:56:09.082Z,35
2018-12-04T12:57:09.317Z,30
2018-12-04T12:58:09.346Z,35
2018-12-04T12:59:09.336Z,35
2018-12-04T13:00:09.298Z,35
2018-12-04T13:01:08.800Z,40
2018-12-04T13:02:09.047Z,40
2018-12-04T13:03:08.826Z,40
2018-12-04T13:04:08.807Z,40
2018-12-04T13:05:09.294Z,45
2018-12-04T13:06:09.323Z,45
2018-12-04T13:07:08.804Z,45
2018-12-04T13:08:09.040Z,45
2018-12-04T13:09:08.788Z,45
2018-12-04T13:10:08.786Z,45
2018-12-04T13:11:08.779Z,40
2018-12-04T13:12:08.996Z,45
2018-12-04T13:13:09.066Z,50
2018-12-04T13:14:09.284Z,50
2018-12-04T13:15:08.990Z,50
2018-12-04T13:16:08.754Z,55
2018-12-04T13:17:09.000Z,55
2018-12-04T13:18:08.727Z,55
2018-12-04T13:19:09.229Z,55
2018-12-04T13:20:08.770Z,55
2018-12-04T13:21:09.201Z,60
2018-12-04T13:22:09.028Z,70
2018-12-04T13:23:08.954Z,75
2018-12-04T13:24:08.927Z,75
2018-12-04T13:25:08.718Z,70
2018-12-04T13:26:08.975Z,70
2018-12-04T13:27:09.253Z,65
2018-12-04T13:28:09.143Z,55
2018-12-04T13:29:09.202Z,50
2018-12-04T13:30:09.199Z,50
2018-12-04T13:31:09.164Z,50
2018-12-04T13:32:08.888Z,55
2018-12-04T13:33:08.939Z,50
2018-12-04T13:34:08.941Z,55
2018-12-04T13:35:08.914Z,60
2018-12-04T13:36:08.670Z,65
2018-12-04T13:37:09.133Z,65
2018-12-04T13:38:08.852Z,65
2018-12-04T13:39:08.918Z,60
2018-12-04T13:40:13.374Z,55
2018-12-04T13:41:09.138Z,55
2018-12-04T13:42:08.654Z,55
2018-12-04T13:43:09.088Z,50
2018-12-04T13:44:08.922Z,50
2018-12-04T13:45:09.126Z,50
2018-12-04T13:46:08.636Z,45
2018-12-04T13:47:08.605Z,40
2018-12-04T13:48:10.444Z,35
2018-12-04T13:49:08.857Z,30
2018-12-04T13:50:09.622Z,25
2018-12-04T13:51:08.797Z,20
2018-12-04T13:52:08.809Z,20
2018-12-04T13:53:08.578Z,20
2018-12-04T13:54:08.791Z,15
2018-12-04T13:55:09.135Z,15
2018-12-04T13:56:08.803Z,15
2018-12-04T13:57:09.067Z,15
2018-12-04T13:58:09.024Z,15
2018-12-04T13:59:08.799Z,20
2018-12-04T14:00:08.783Z,25
2018-12-04T14:01:08.786Z,30
2018-12-04T14:02:09.029Z,40
2018-12-04T14:03:09.070Z,45
2018-12-04T14:04:08.787Z,50
2018-12-04T14:05:12.967Z,55
2018-12-04T14:06:08.571Z,55
2018-12-04T14:07:08.592Z,50
2018-12-04T14:08:09.006Z,50
2018-12-04T14:09:08.549Z,50
2018-12-04T14:10:08.888Z,45
2018-12-04T14:11:08.782Z,45
2018-12-04T14:12:09.009Z,40
2018-12-04T14:13:08.725Z,40
2018-12-04T14:14:08.706Z,40
2018-12-04T14:15:08.740Z,40
2018-12-04T14:16:08.493Z,45
2018-12-04T14:17:08.687Z,40
2018-12-04T14:18:08.721Z,40
2018-12-04T14:19:09.053Z,40
2018-12-04T14:20:08.968Z,40
2018-12-04T14:21:08.507Z,40
2018-12-04T14:22:08.689Z,35
2018-12-04T14:23:08.964Z,35
2018-12-04T14:24:08.733Z,35
2018-12-04T14:25:08.679Z,35
2018-12-04T14:26:08.398Z,40
2018-12-04T14:27:08.447Z,40
2018-12-04T14:28:08.390Z,45
2018-12-04T14:29:08.933Z,45